createdAt,value
2019-04-26T00:01:38.595Z,100543.31
2019-04-26T00:04:07.710Z,100533.44
2019-04-26T00:06:37.277Z,100530.62
2019-04-26T00:09:27.247Z,100531.77
2019-04-26T00:12:03.083Z,100529.58
2019-04-26T00:14:42.110Z,100529.27
2019-04-26T00:17:12.171Z,100518.50
2019-04-26T00:19:39.960Z,100521.73
2019-04-26T00:22:08.974Z,100523.33
2019-04-26T00:24:37.773Z,100529.53
2019-04-26T00:27:06.212Z,100540.67
2019-04-26T00:29:34.624Z,100570.27
2019-04-26T00:32:03.116Z,100597.75
2019-04-26T00:34:31.556Z,100610.56
2019-04-26T00:36:59.971Z,100610.77
2019-04-26T00:39:28.596Z,100592.87
2019-04-26T00:41:57.765Z,100582.67
2019-04-26T00:44:26.357Z,100584.95
2019-04-26T00:46:57.004Z,100605.98
2019-04-26T00:49:26.273Z,100625.66
2019-04-26T00:51:55.235Z,100627.02
2019-04-26T00:54:25.593Z,100628.38
2019-04-26T00:56:54.154Z,100605.67
2019-04-26T00:59:23.273Z,100606.73
2019-04-26T01:01:53.407Z,100592.98
2019-04-26T01:04:22.953Z,100584.22
2019-04-26T01:06:53.042Z,100581.59
2019-04-26T01:09:21.916Z,100590.16
2019-04-26T01:11:50.327Z,100585.15
2019-04-26T01:14:19.884Z,100607.17
2019-04-26T01:16:48.480Z,100610.91
2019-04-26T01:19:18.649Z,100600.49
2019-04-26T01:21:52.730Z,100586.77
2019-04-26T01:24:24.001Z,100576.12
2019-04-26T01:26:55.483Z,100584.95
2019-04-26T01:29:25.978Z,100585.76
2019-04-26T01:32:00.136Z,100582.73
2019-04-26T01:34:29.098Z,100567.70
2019-04-26T01:36:59.066Z,100558.52
2019-04-26T01:39:27.980Z,100551.39
2019-04-26T01:42:14.288Z,100547.22
2019-04-26T01:44:53.078Z,100552.62
2019-04-26T01:47:22.266Z,100548.24
2019-04-26T01:49:51.172Z,100542.06
2019-04-26T01:52:19.586Z,100539.34
2019-04-26T01:54:48.296Z,100531.38
2019-04-26T01:57:16.790Z,100541.33
2019-04-26T01:59:49.977Z,100531.18
2019-04-26T02:02:35.172Z,100524.98
2019-04-26T02:05:07.325Z,100520.17
2019-04-26T02:07:39.098Z,100523.75
2019-04-26T02:10:16.480Z,100530.81
2019-04-26T02:12:47.522Z,100529.97
2019-04-26T02:15:18.380Z,100520.27
2019-04-26T02:17:49.280Z,100521.06
2019-04-26T02:20:37.062Z,100527.73
2019-04-26T02:23:07.117Z,100522.22
2019-04-26T02:25:35.552Z,100510.61
2019-04-26T02:28:04.098Z,100505.98
2019-04-26T02:30:34.664Z,100518.30
2019-04-26T02:33:02.251Z,100514.13
2019-04-26T02:35:32.158Z,100498.34
2019-04-26T02:38:01.749Z,100506.03
2019-04-26T02:40:31.689Z,100517.12
2019-04-26T02:42:59.823Z,100516.02
2019-04-26T02:45:44.523Z,100519.65
2019-04-26T02:48:30.823Z,100517.78
2019-04-26T02:51:02.570Z,100522.94
2019-04-26T02:53:45.345Z,100520.08
2019-04-26T02:56:30.300Z,100508.14
2019-04-26T02:59:13.138Z,100505.24
2019-04-26T03:01:42.233Z,100504.30
2019-04-26T03:04:10.695Z,100502.63
2019-04-26T03:06:42.952Z,100500.67
2019-04-26T03:09:14.154Z,100501.91
2019-04-26T03:11:48.471Z,100506.78
2019-04-26T03:14:23.539Z,100512.53
2019-04-26T03:16:56.660Z,100516.05
2019-04-26T03:19:39.625Z,100501.47
2019-04-26T03:22:17.189Z,100507.73
2019-04-26T03:24:48.819Z,100504.86
2019-04-26T03:27:33.556Z,100498.05
2019-04-26T03:30:22.299Z,100492.34
2019-04-26T03:33:04.290Z,100494.84
2019-04-26T03:36:01.398Z,100493.36
2019-04-26T03:38:51.953Z,100488.45
2019-04-26T03:41:25.579Z,100474.02
2019-04-26T03:43:57.037Z,100474.50
2019-04-26T03:46:45.134Z,100484.23
2019-04-26T03:49:29.166Z,100488.95
2019-04-26T03:52:26.064Z,100489.83
2019-04-26T03:54:57.617Z,100497.94
2019-04-26T03:57:38.348Z,100502.91
2019-04-26T04:00:10.873Z,100510.51
2019-04-26T04:02:58.651Z,100510.21
2019-04-26T04:05:37.266Z,100517.69
2019-04-26T04:08:07.733Z,100514.87
2019-04-26T04:10:44.124Z,100509.70
2019-04-26T04:13:40.550Z,100513.95
2019-04-26T04:16:20.154Z,100512.60
2019-04-26T04:18:54.056Z,100517.66
2019-04-26T04:21:29.111Z,100509.25
2019-04-26T04:24:00.590Z,100513.62
2019-04-26T04:26:32.071Z,100518.84
2019-04-26T04:29:20.087Z,100521.18
2019-04-26T04:31:57.092Z,100515.14
2019-04-26T04:34:37.769Z,100527.92
2019-04-26T04:37:08.545Z,100520.22
2019-04-26T04:39:49.919Z,100521.73
2019-04-26T04:42:41.406Z,100515.19
2019-04-26T04:45:29.454Z,100516.42
2019-04-26T04:48:18.709Z,100524.00
2019-04-26T04:51:17.537Z,100517.96
2019-04-26T04:53:49.780Z,100532.75
2019-04-26T04:56:27.047Z,100537.29
2019-04-26T04:59:22.732Z,100540.64
2019-04-26T05:02:04.079Z,100545.81
2019-04-26T05:04:38.644Z,100546.50
2019-04-26T05:07:20.423Z,100539.77
2019-04-26T05:10:10.071Z,100524.42
2019-04-26T05:12:56.421Z,100533.84
2019-04-26T05:16:03.058Z,100557.70
2019-04-26T05:18:44.134Z,100547.84
2019-04-26T05:21:35.944Z,100553.92
2019-04-26T05:24:13.950Z,100547.23
2019-04-26T05:27:29.000Z,100528.97
2019-04-26T05:30:22.943Z,100544.12
2019-04-26T05:33:00.370Z,100525.72
2019-04-26T05:36:06.950Z,100541.20
2019-04-26T05:38:41.307Z,100548.41
2019-04-26T05:41:53.536Z,100545.24
2019-04-26T05:45:12.537Z,100537.00
2019-04-26T05:48:06.192Z,100531.65
2019-04-26T05:51:15.506Z,100547.31
2019-04-26T05:54:30.746Z,100551.97
2019-04-26T05:57:12.342Z,100551.84
2019-04-26T05:59:55.095Z,100548.50
2019-04-26T06:02:33.652Z,100552.52
2019-04-26T06:05:18.634Z,100561.87
2019-04-26T06:08:32.229Z,100570.92
2019-04-26T06:11:05.334Z,100583.86
2019-04-26T06:13:52.177Z,100584.36
2019-04-26T06:16:40.068Z,100579.83
2019-04-26T06:19:42.679Z,100570.89
2019-04-26T06:22:26.157Z,100566.86
2019-04-26T06:25:14.224Z,100548.51
2019-04-26T06:28:00.745Z,100542.95
2019-04-26T06:30:45.017Z,100545.80
2019-04-26T06:33:10.879Z,100546.77
2019-04-26T06:35:43.488Z,100551.44
2019-04-26T06:38:43.978Z,100561.98
2019-04-26T06:41:38.870Z,100570.54
2019-04-26T06:44:23.191Z,100571.66
2019-04-26T06:47:04.650Z,100575.06
2019-04-26T06:50:01.590Z,100576.68
2019-04-26T06:52:33.080Z,100582.37
2019-04-26T06:55:18.337Z,100591.93
2019-04-26T06:58:14.235Z,100598.61
2019-04-26T07:01:01.889Z,100608.30
2019-04-26T07:03:45.200Z,100613.60
2019-04-26T07:06:16.680Z,100608.80
2019-04-26T07:08:57.556Z,100606.86
2019-04-26T07:11:54.618Z,100614.81
2019-04-26T07:14:59.285Z,100617.52
2019-04-26T07:17:48.453Z,100631.18
2019-04-26T07:20:23.135Z,100630.67
2019-04-26T07:23:05.698Z,100626.85
2019-04-26T07:26:13.789Z,100626.66
2019-04-26T07:28:51.019Z,100628.35
2019-04-26T07:31:31.431Z,100635.47
2019-04-26T07:34:16.580Z,100628.27
2019-04-26T07:37:11.398Z,100646.32
2019-04-26T07:40:11.597Z,100639.16
2019-04-26T07:43:01.698Z,100644.93
2019-04-26T07:45:37.445Z,100656.59
2019-04-26T07:48:34.683Z,100653.57
2019-04-26T07:51:25.547Z,100665.64
2019-04-26T07:53:59.875Z,100652.70
2019-04-26T07:56:31.349Z,100660.69
2019-04-26T07:59:34.073Z,100667.42
2019-04-26T08:02:15.932Z,100666.72
2019-04-26T08:04:47.367Z,100672.94
2019-04-26T08:07:25.023Z,100669.47
2019-04-26T08:10:07.969Z,100664.62
2019-04-26T08:12:39.374Z,100657.42
2019-04-26T08:15:16.241Z,100674.14
2019-04-26T08:17:57.936Z,100676.68
2019-04-26T08:20:48.366Z,100689.16
2019-04-26T08:23:38.047Z,100684.78
2019-04-26T08:25:50.195Z,100687.11
2019-04-26T08:28:21.599Z,100672.59
2019-04-26T08:30:54.286Z,100687.92
2019-04-26T08:33:30.086Z,100673.66
2019-04-26T08:36:00.489Z,100668.25
2019-04-26T08:38:28.652Z,100674.56
2019-04-26T08:41:00.476Z,100674.89
2019-04-26T08:43:43.483Z,100670.13
2019-04-26T08:46:18.788Z,100674.05
2019-04-26T08:48:50.936Z,100672.62
2019-04-26T08:51:22.117Z,100683.27
2019-04-26T08:53:52.913Z,100685.30
2019-04-26T08:56:24.400Z,100670.76
2019-04-26T08:58:56.583Z,100677.22
2019-04-26T09:01:46.734Z,100678.63
2019-04-26T09:04:20.510Z,100706.00
2019-04-26T09:06:55.683Z,100688.33
2019-04-26T09:09:27.547Z,100687.63
2019-04-26T09:11:59.758Z,100734.41
2019-04-26T09:14:30.528Z,100730.89
2019-04-26T09:16:58.943Z,100730.33
2019-04-26T09:19:30.571Z,100723.69
2019-04-26T09:22:12.201Z,100731.52
2019-04-26T09:24:47.307Z,100736.73
2019-04-26T09:27:21.078Z,100741.81
2019-04-26T09:30:04.883Z,100752.49
2019-04-26T09:32:35.915Z,100749.00
2019-04-26T09:35:04.675Z,100768.28
2019-04-26T09:37:33.040Z,100767.37
2019-04-26T09:40:10.210Z,100754.02
2019-04-26T09:42:41.029Z,100761.36
2019-04-26T09:45:11.704Z,100752.56
2019-04-26T09:48:00.007Z,100745.19
2019-04-26T09:50:32.827Z,100740.32
2019-04-26T09:53:01.343Z,100761.67
2019-04-26T09:55:35.519Z,100762.30
2019-04-26T09:57:59.947Z,100754.16
2019-04-26T10:00:30.242Z,100766.02
2019-04-26T10:02:58.840Z,100785.16
2019-04-26T10:05:27.323Z,100785.53
2019-04-26T10:07:55.860Z,100776.39
2019-04-26T10:10:26.466Z,100778.56
2019-04-26T10:12:59.228Z,100785.14
2019-04-26T10:15:31.768Z,100793.51
2019-04-26T10:18:01.263Z,100794.98
2019-04-26T10:20:29.625Z,100789.86
2019-04-26T10:22:58.055Z,100791.72
2019-04-26T10:25:26.476Z,100790.73
2019-04-26T10:27:55.037Z,100793.98
2019-04-26T10:30:23.535Z,100799.83
2019-04-26T10:32:51.949Z,100785.16
2019-04-26T10:35:21.712Z,100802.76
2019-04-26T10:37:52.597Z,100813.33
2019-04-26T10:40:20.896Z,100821.05
2019-04-26T10:42:49.345Z,100822.50
2019-04-26T10:45:18.572Z,100826.25
2019-04-26T10:47:47.012Z,100823.44
2019-04-26T10:50:15.976Z,100832.12
2019-04-26T10:52:54.261Z,100824.16
2019-04-26T10:55:23.279Z,100825.08
2019-04-26T10:57:56.632Z,100829.94
2019-04-26T11:00:32.472Z,100829.59
2019-04-26T11:03:04.456Z,100840.78
2019-04-26T11:05:31.153Z,100822.77
2019-04-26T11:07:59.734Z,100835.16
2019-04-26T11:10:29.954Z,100843.77
2019-04-26T11:12:58.442Z,100842.55
2019-04-26T11:15:29.045Z,100852.41
2019-04-26T11:17:56.910Z,100850.37
2019-04-26T11:20:25.287Z,100850.13
2019-04-26T11:22:53.841Z,100855.20
2019-04-26T11:25:24.611Z,100850.08
2019-04-26T11:27:52.680Z,100857.56
2019-04-26T11:30:21.455Z,100870.16
2019-04-26T11:32:50.249Z,100867.36
2019-04-26T11:35:18.724Z,100869.12
2019-04-26T11:37:50.702Z,100863.88
2019-04-26T11:40:17.833Z,100867.95
2019-04-26T11:42:47.334Z,100860.03
2019-04-26T11:45:17.878Z,100860.63
2019-04-26T11:47:55.879Z,100855.41
2019-04-26T11:50:17.859Z,100863.65
2019-04-26T11:52:46.816Z,100862.55
2019-04-26T11:55:15.694Z,100848.27
2019-04-26T11:57:47.446Z,100843.30
2019-04-26T12:00:32.053Z,100847.89
2019-04-26T12:03:00.480Z,100847.65
2019-04-26T12:05:30.573Z,100843.95
2019-04-26T12:08:06.131Z,100834.88
2019-04-26T12:10:34.562Z,100840.42
2019-04-26T12:13:05.852Z,100845.45
2019-04-26T12:15:33.371Z,100836.25
2019-04-26T12:18:05.510Z,100826.58
2019-04-26T12:20:32.420Z,100830.83
2019-04-26T12:23:00.839Z,100822.47
2019-04-26T12:25:31.098Z,100829.08
2019-04-26T12:28:02.010Z,100854.27
2019-04-26T12:30:29.024Z,100859.84
2019-04-26T12:32:57.437Z,100868.64
2019-04-26T12:35:25.902Z,100851.07
2019-04-26T12:37:54.969Z,100846.72
2019-04-26T12:40:24.225Z,100871.64
2019-04-26T12:42:52.981Z,100878.33
2019-04-26T12:45:28.954Z,100875.30
2019-04-26T12:48:07.869Z,100858.69
2019-04-26T12:50:37.620Z,100871.33
2019-04-26T12:53:04.484Z,100884.80
2019-04-26T12:55:32.848Z,100881.20
2019-04-26T12:58:01.270Z,100885.47
2019-04-26T13:00:37.498Z,100895.50
2019-04-26T13:03:04.993Z,100893.55
2019-04-26T13:05:33.414Z,100910.14
2019-04-26T13:08:02.362Z,100897.25
2019-04-26T13:10:50.646Z,100900.44
2019-04-26T13:13:20.720Z,100883.83
2019-04-26T13:16:08.306Z,100910.56
2019-04-26T13:18:36.781Z,100909.14
2019-04-26T13:21:05.562Z,100898.27
2019-04-26T13:23:33.997Z,100905.75
2019-04-26T13:26:02.421Z,100912.16
2019-04-26T13:28:30.859Z,100895.34
2019-04-26T13:31:02.035Z,100918.48
2019-04-26T13:33:29.447Z,100903.27
2019-04-26T13:36:05.165Z,100923.66
2019-04-26T13:38:28.072Z,100906.14
2019-04-26T13:40:59.821Z,100886.75
2019-04-26T13:43:28.538Z,100908.93
2019-04-26T13:46:01.109Z,100912.55
2019-04-26T13:48:33.865Z,100917.94
2019-04-26T13:51:07.415Z,100924.33
2019-04-26T13:53:35.841Z,100916.28
2019-04-26T13:56:04.441Z,100928.77
2019-04-26T13:58:32.939Z,100931.34
2019-04-26T14:01:02.439Z,100929.41
2019-04-26T14:03:31.590Z,100929.55
2019-04-26T14:06:01.014Z,100938.86
2019-04-26T14:08:29.433Z,100929.22
2019-04-26T14:10:57.857Z,100929.41
2019-04-26T14:13:26.293Z,100935.72
2019-04-26T14:15:54.725Z,100936.69
2019-04-26T14:18:23.170Z,100944.28
2019-04-26T14:20:54.914Z,100867.87
2019-04-26T14:23:23.388Z,100950.58
2019-04-26T14:25:55.595Z,100956.33
2019-04-26T14:28:25.233Z,100952.88
2019-04-26T14:30:53.685Z,100967.67
2019-04-26T14:33:22.123Z,100975.53
2019-04-26T14:35:52.122Z,100966.75
2019-04-26T14:38:27.802Z,100963.88
2019-04-26T14:41:03.237Z,100956.06
2019-04-26T14:43:22.280Z,100949.87
2019-04-26T14:45:56.045Z,100951.47
2019-04-26T14:48:35.122Z,100960.52
2019-04-26T14:50:53.246Z,100954.46
2019-04-26T14:53:22.110Z,100956.09
2019-04-26T14:55:51.199Z,100957.08
2019-04-26T14:58:23.864Z,100958.21
2019-04-26T15:00:58.426Z,100956.00
2019-04-26T15:03:45.151Z,100947.42
2019-04-26T15:06:16.843Z,100956.38
2019-04-26T15:08:48.678Z,100953.59
2019-04-26T15:11:15.794Z,100946.52
2019-04-26T15:13:44.246Z,100938.13
2019-04-26T15:16:14.237Z,100935.77
2019-04-26T15:18:43.213Z,100943.23
2019-04-26T15:21:12.883Z,100948.33
2019-04-26T15:23:41.456Z,100950.39
2019-04-26T15:26:09.885Z,100957.91
2019-04-26T15:28:38.400Z,100967.23
2019-04-26T15:31:06.855Z,100956.72
2019-04-26T15:33:36.069Z,100976.83
2019-04-26T15:36:06.455Z,100985.37
2019-04-26T15:38:41.402Z,100987.46
2019-04-26T15:41:11.730Z,101001.20
2019-04-26T15:43:38.802Z,101005.21
2019-04-26T15:46:12.506Z,101011.02
2019-04-26T15:48:42.926Z,101020.54
2019-04-26T15:51:12.582Z,101033.38
2019-04-26T15:53:44.878Z,101029.52
2019-04-26T15:56:14.631Z,101036.78
2019-04-26T15:58:45.846Z,101033.45
2019-04-26T16:01:13.421Z,101033.86
2019-04-26T16:03:44.593Z,101030.88
2019-04-26T16:06:12.635Z,101026.45
2019-04-26T16:08:43.647Z,101033.70
2019-04-26T16:11:12.393Z,101035.39
2019-04-26T16:13:45.251Z,101034.75
2019-04-26T16:16:12.507Z,101044.34
2019-04-26T16:18:40.632Z,101039.54
2019-04-26T16:21:13.516Z,101031.59
2019-04-26T16:23:43.202Z,101030.09
2019-04-26T16:26:12.943Z,101034.80
2019-04-26T16:28:44.382Z,101043.37
2019-04-26T16:31:28.228Z,101061.56
2019-04-26T16:33:58.324Z,101049.80
2019-04-26T16:36:26.829Z,101045.92
2019-04-26T16:38:57.949Z,101053.31
2019-04-26T16:41:27.152Z,101064.27
2019-04-26T16:43:55.536Z,101065.09
2019-04-26T16:46:24.873Z,101076.22
2019-04-26T16:48:55.439Z,101080.25
2019-04-26T16:51:23.543Z,101082.61
2019-04-26T16:54:06.292Z,101081.05
2019-04-26T16:56:26.518Z,101091.48
2019-04-26T16:58:54.770Z,101085.75
2019-04-26T17:01:23.427Z,101078.38
2019-04-26T17:03:53.477Z,101083.06
2019-04-26T17:06:23.324Z,101074.99
2019-04-26T17:09:00.808Z,101076.86
2019-04-26T17:11:22.957Z,101076.69
2019-04-26T17:13:56.626Z,101078.52
2019-04-26T17:16:22.438Z,101078.86
2019-04-26T17:18:51.273Z,101088.15
2019-04-26T17:21:25.363Z,101090.27
2019-04-26T17:24:12.211Z,101077.83
2019-04-26T17:26:42.835Z,101074.27
2019-04-26T17:29:10.763Z,101083.32
2019-04-26T17:31:39.318Z,101085.05
2019-04-26T17:34:07.779Z,101078.92
2019-04-26T17:36:36.212Z,101074.02
2019-04-26T17:39:11.025Z,101072.82
2019-04-26T17:41:44.994Z,101074.12
2019-04-26T17:44:13.120Z,100939.52
2019-04-26T17:46:40.698Z,101068.02
2019-04-26T17:49:10.992Z,101074.67
2019-04-26T17:51:44.131Z,101082.16
2019-04-26T17:54:26.497Z,101090.84
2019-04-26T17:56:40.205Z,101097.73
2019-04-26T17:59:13.721Z,101099.17
2019-04-26T18:01:45.286Z,101091.92
2019-04-26T18:04:11.263Z,100756.00
2019-04-26T18:06:40.401Z,101106.95
2019-04-26T18:09:13.227Z,101112.27
2019-04-26T18:11:41.208Z,101108.55
2019-04-26T18:14:20.865Z,101088.39
2019-04-26T18:16:42.733Z,101070.62
2019-04-26T18:19:42.083Z,101071.46
2019-04-26T18:22:34.998Z,101081.84
2019-04-26T18:25:04.359Z,101089.38
2019-04-26T18:27:35.728Z,101094.61
2019-04-26T18:30:06.679Z,101098.42
2019-04-26T18:32:33.933Z,101100.57
2019-04-26T18:35:00.719Z,101087.42
2019-04-26T18:37:29.199Z,101085.39
2019-04-26T18:40:02.076Z,101097.64
2019-04-26T18:42:28.076Z,101107.33
2019-04-26T18:44:56.519Z,101106.78
2019-04-26T18:47:28.310Z,101107.28
2019-04-26T18:49:58.501Z,101111.95
2019-04-26T18:52:28.842Z,101104.06
2019-04-26T18:55:05.800Z,101097.52
2019-04-26T18:57:35.002Z,101107.05
2019-04-26T19:00:06.794Z,101093.82
2019-04-26T19:02:35.400Z,101095.31
2019-04-26T19:05:05.513Z,101098.80
2019-04-26T19:07:34.009Z,101111.50
2019-04-26T19:10:05.348Z,101116.02
2019-04-26T19:12:33.163Z,101116.86
2019-04-26T19:15:07.551Z,101110.31
2019-04-26T19:17:37.778Z,101115.32
2019-04-26T19:20:26.176Z,101116.31
2019-04-26T19:22:56.257Z,101113.64
2019-04-26T19:25:25.442Z,101115.13
2019-04-26T19:27:58.890Z,101116.96
2019-04-26T19:30:25.387Z,101113.14
2019-04-26T19:32:54.162Z,101120.19
2019-04-26T19:35:22.809Z,101119.34
2019-04-26T19:37:51.791Z,101127.58
2019-04-26T19:40:20.370Z,101137.11
2019-04-26T19:42:55.420Z,101147.34
2019-04-26T19:46:25.319Z,101158.25
2019-04-26T19:49:01.396Z,101156.42
2019-04-26T19:51:34.416Z,101156.81
2019-04-26T19:54:07.004Z,101167.89
2019-04-26T19:56:37.108Z,101163.52
2019-04-26T19:59:05.817Z,101166.34
2019-04-26T20:01:34.252Z,101147.25
2019-04-26T20:04:02.721Z,101150.12
2019-04-26T20:06:32.248Z,101152.61
2019-04-26T20:09:01.961Z,101151.80
2019-04-26T20:11:31.672Z,101076.09
2019-04-26T20:14:01.153Z,101142.92
2019-04-26T20:16:30.286Z,101140.05
2019-04-26T20:18:58.713Z,101134.20
2019-04-26T20:21:27.156Z,101125.00
2019-04-26T20:23:55.751Z,101118.94
2019-04-26T20:26:24.294Z,101125.79
2019-04-26T20:28:52.746Z,101128.63
2019-04-26T20:31:37.514Z,101136.31
2019-04-26T20:34:05.549Z,101147.03
2019-04-26T20:36:40.660Z,101145.84
2019-04-26T20:39:07.189Z,101142.67
2019-04-26T20:41:35.666Z,101058.77
2019-04-26T20:44:09.481Z,101137.66
2019-04-26T20:46:37.738Z,101143.52
2019-04-26T20:49:07.949Z,101105.23
2019-04-26T20:51:34.968Z,101151.75
2019-04-26T20:54:03.914Z,101161.78
2019-04-26T20:56:32.460Z,101163.97
2019-04-26T20:59:01.557Z,101164.95
2019-04-26T21:01:32.008Z,101167.48
2019-04-26T21:03:59.783Z,101168.48
2019-04-26T21:06:29.237Z,101163.09
2019-04-26T21:08:59.079Z,101164.36
2019-04-26T21:11:30.330Z,101173.55
2019-04-26T21:14:01.884Z,101161.48
2019-04-26T21:16:32.366Z,101172.84
2019-04-26T21:19:01.841Z,101180.39
2019-04-26T21:21:32.107Z,101174.89
2019-04-26T21:24:03.670Z,101181.94
2019-04-26T21:26:52.769Z,101186.80
2019-04-26T21:29:32.508Z,101188.64
2019-04-26T21:32:02.609Z,101199.66
2019-04-26T21:34:33.293Z,101208.25
2019-04-26T21:37:22.153Z,101209.38
2019-04-26T21:39:53.263Z,101209.73
2019-04-26T21:42:25.523Z,101212.91
2019-04-26T21:44:53.221Z,101200.00
2019-04-26T21:47:23.174Z,101189.13
2019-04-26T21:49:58.487Z,101185.46
2019-04-26T21:52:27.591Z,101169.72
2019-04-26T21:54:53.241Z,101167.89
2019-04-26T21:57:27.843Z,101153.64
2019-04-26T21:59:54.010Z,101152.80
2019-04-26T22:02:25.236Z,101150.95
2019-04-26T22:04:53.209Z,101149.13
2019-04-26T22:07:21.737Z,101139.34
2019-04-26T22:09:57.862Z,101139.56
2019-04-26T22:12:27.233Z,101128.67
2019-04-26T22:15:00.904Z,101133.48
2019-04-26T22:17:36.529Z,101118.89
2019-04-26T22:20:21.415Z,101128.58
2019-04-26T22:23:03.660Z,101138.10
2019-04-26T22:25:33.742Z,101141.43
2019-04-26T22:28:03.358Z,101139.23
2019-04-26T22:30:33.162Z,101148.61
2019-04-26T22:33:03.065Z,101167.03
2019-04-26T22:35:31.741Z,101167.02
2019-04-26T22:38:00.304Z,101169.00
2019-04-26T22:40:28.730Z,101181.20
2019-04-26T22:43:05.303Z,101178.73
2019-04-26T22:45:44.205Z,101173.02
2019-04-26T22:48:19.417Z,101182.55
2019-04-26T22:50:43.926Z,101194.95
2019-04-26T22:53:12.531Z,101196.30
2019-04-26T22:55:41.048Z,101204.88
2019-04-26T22:58:09.541Z,101201.86
2019-04-26T23:00:39.153Z,101185.98
2019-04-26T23:03:07.590Z,101163.52
2019-04-26T23:05:39.138Z,101158.84
2019-04-26T23:08:06.473Z,101163.02
2019-04-26T23:10:36.553Z,101166.05
2019-04-26T23:13:15.351Z,101161.51
2019-04-26T23:15:54.209Z,101167.37
2019-04-26T23:18:43.769Z,101158.43
2019-04-26T23:21:15.029Z,101158.87
2019-04-26T23:23:44.276Z,101164.03
2019-04-26T23:26:14.388Z,101165.17
2019-04-26T23:28:43.383Z,101156.64
2019-04-26T23:31:13.388Z,101148.25
2019-04-26T23:33:42.907Z,101141.00
2019-04-26T23:36:10.946Z,101139.17
2019-04-26T23:38:39.485Z,101127.28
2019-04-26T23:41:07.919Z,101127.45
2019-04-26T23:43:36.416Z,101119.72
2019-04-26T23:46:04.942Z,101117.33
2019-04-26T23:48:33.380Z,101115.15
2019-04-26T23:51:05.019Z,101108.59
2019-04-26T23:53:33.647Z,101121.16
2019-04-26T23:56:01.604Z,101121.99
2019-04-26T23:58:30.037Z,101123.86
